sensor_id;sensor_type;location;lat;lon;timestamp;P1;durP1;ratioP1;P2;durP2;ratioP2
3587;SDS011;1808;53.596;9.972;2023-03-01T00:01:00;16.63;;;8.00;;
3587;SDS011;1808;53.596;9.972;2023-03-01T00:03:27;15.85;;;7.55;;
3587;SDS011;1808;53.596;9.972;2023-03-01T00:05:53;14.57;;;7.18;;
3587;SDS011;1808;53.596;9.972;2023-03-01T00:08:20;16.38;;;6.88;;
3587;SDS011;1808;53.596;9.972;2023-03-01T00:10:46;14.88;;;6.80;;
3587;SDS011;1808;53.596;9.972;2023-03-01T00:13:12;15.75;;;6.45;;
3587;SDS011;1808;53.596;9.972;2023-03-01T00:15:40;17.55;;;7.60;;
3587;SDS011;1808;53.596;9.972;2023-03-01T00:18:07;14.52;;;6.78;;
3587;SDS011;1808;53.596;9.972;2023-03-01T00:20:34;12.27;;;7.05;;
3587;SDS011;1808;53.596;9.972;2023-03-01T00:23:00;15.93;;;6.78;;
3587;SDS011;1808;53.596;9.972;2023-03-01T00:25:27;14.95;;;7.70;;
3587;SDS011;1808;53.596;9.972;2023-03-01T00:27:53;16.52;;;7.30;;
3587;SDS011;1808;53.596;9.972;2023-03-01T00:30:19;15.18;;;7.95;;
3587;SDS011;1808;53.596;9.972;2023-03-01T00:32:47;13.55;;;7.65;;
3587;SDS011;1808;53.596;9.972;2023-03-01T00:35:14;15.95;;;7.53;;
3587;SDS011;1808;53.596;9.972;2023-03-01T00:37:40;15.98;;;7.43;;
3587;SDS011;1808;53.596;9.972;2023-03-01T00:40:07;16.05;;;7.00;;
3587;SDS011;1808;53.596;9.972;2023-03-01T00:42:35;17.33;;;7.45;;
3587;SDS011;1808;53.596;9.972;2023-03-01T00:45:01;17.08;;;7.32;;
3587;SDS011;1808;53.596;9.972;2023-03-01T00:47:28;15.50;;;6.70;;
3587;SDS011;1808;53.596;9.972;2023-03-01T00:49:56;14.88;;;6.88;;
3587;SDS011;1808;53.596;9.972;2023-03-01T00:52:22;16.60;;;7.13;;
3587;SDS011;1808;53.596;9.972;2023-03-01T00:54:51;14.02;;;6.70;;
3587;SDS011;1808;53.596;9.972;2023-03-01T00:57:19;13.98;;;6.88;;
3587;SDS011;1808;53.596;9.972;2023-03-01T00:59:45;20.20;;;8.05;;
3587;SDS011;1808;53.596;9.972;2023-03-01T01:02:12;12.65;;;6.57;;
3587;SDS011;1808;53.596;9.972;2023-03-01T01:04:38;14.52;;;7.18;;
3587;SDS011;1808;53.596;9.972;2023-03-01T01:07:06;14.52;;;6.47;;
3587;SDS011;1808;53.596;9.972;2023-03-01T01:09:32;16.10;;;7.15;;
3587;SDS011;1808;53.596;9.972;2023-03-01T01:11:59;16.85;;;7.47;;
3587;SDS011;1808;53.596;9.972;2023-03-01T01:14:25;15.60;;;7.30;;
3587;SDS011;1808;53.596;9.972;2023-03-01T01:16:52;15.43;;;7.00;;
3587;SDS011;1808;53.596;9.972;2023-03-01T01:19:18;14.60;;;6.57;;
3587;SDS011;1808;53.596;9.972;2023-03-01T01:21:44;13.88;;;7.18;;
3587;SDS011;1808;53.596;9.972;2023-03-01T01:24:13;20.98;;;8.20;;
3587;SDS011;1808;53.596;9.972;2023-03-01T01:26:39;13.77;;;6.97;;
3587;SDS011;1808;53.596;9.972;2023-03-01T01:29:07;13.15;;;6.43;;
3587;SDS011;1808;53.596;9.972;2023-03-01T01:31:34;14.10;;;7.43;;
3587;SDS011;1808;53.596;9.972;2023-03-01T01:34:01;17.92;;;8.65;;
3587;SDS011;1808;53.596;9.972;2023-03-01T01:36:29;17.98;;;9.40;;
3587;SDS011;1808;53.596;9.972;2023-03-01T01:38:55;21.92;;;8.15;;
3587;SDS011;1808;53.596;9.972;2023-03-01T01:41:24;17.73;;;7.95;;
3587;SDS011;1808;53.596;9.972;2023-03-01T01:46:42;15.63;;;7.28;;
3587;SDS011;1808;53.596;9.972;2023-03-01T01:49:14;15.80;;;7.68;;
3587;SDS011;1808;53.596;9.972;2023-03-01T01:51:45;16.20;;;7.63;;
3587;SDS011;1808;53.596;9.972;2023-03-01T01:54:15;15.05;;;7.68;;
3587;SDS011;1808;53.596;9.972;2023-03-01T01:56:44;15.85;;;7.53;;
3587;SDS011;1808;53.596;9.972;2023-03-01T01:59:15;18.20;;;8.70;;
3587;SDS011;1808;53.596;9.972;2023-03-01T02:01:41;16.05;;;8.07;;
3587;SDS011;1808;53.596;9.972;2023-03-01T02:04:08;17.20;;;7.78;;
3587;SDS011;1808;53.596;9.972;2023-03-01T02:06:36;16.08;;;8.05;;
3587;SDS011;1808;53.596;9.972;2023-03-01T02:09:05;21.85;;;8.38;;
3587;SDS011;1808;53.596;9.972;2023-03-01T02:11:33;17.02;;;8.55;;
3587;SDS011;1808;53.596;9.972;2023-03-01T02:14:03;17.63;;;8.50;;
3587;SDS011;1808;53.596;9.972;2023-03-01T02:16:30;16.88;;;9.50;;
3587;SDS011;1808;53.596;9.972;2023-03-01T02:18:57;15.63;;;8.95;;
3587;SDS011;1808;53.596;9.972;2023-03-01T02:21:27;19.25;;;8.32;;
3587;SDS011;1808;53.596;9.972;2023-03-01T02:23:58;17.38;;;8.70;;
3587;SDS011;1808;53.596;9.972;2023-03-01T02:26:33;16.10;;;8.73;;
3587;SDS011;1808;53.596;9.972;2023-03-01T02:29:03;19.45;;;8.20;;
3587;SDS011;1808;53.596;9.972;2023-03-01T02:31:30;18.60;;;9.70;;
3587;SDS011;1808;53.596;9.972;2023-03-01T02:34:10;15.73;;;8.13;;
3587;SDS011;1808;53.596;9.972;2023-03-01T02:36:39;16.58;;;7.82;;
3587;SDS011;1808;53.596;9.972;2023-03-01T02:39:07;18.92;;;7.63;;
3587;SDS011;1808;53.596;9.972;2023-03-01T02:41:39;16.52;;;7.38;;
3587;SDS011;1808;53.596;9.972;2023-03-01T02:44:08;18.35;;;8.48;;
3587;SDS011;1808;53.596;9.972;2023-03-01T02:46:41;17.55;;;7.85;;
3587;SDS011;1808;53.596;9.972;2023-03-01T02:49:15;15.43;;;7.82;;
3587;SDS011;1808;53.596;9.972;2023-03-01T02:51:45;13.57;;;7.28;;
3587;SDS011;1808;53.596;9.972;2023-03-01T02:54:18;17.50;;;7.35;;
3587;SDS011;1808;53.596;9.972;2023-03-01T02:56:47;16.60;;;7.10;;
3587;SDS011;1808;53.596;9.972;2023-03-01T02:59:16;14.23;;;7.60;;
3587;SDS011;1808;53.596;9.972;2023-03-01T03:01:44;15.27;;;7.10;;
3587;SDS011;1808;53.596;9.972;2023-03-01T03:04:13;14.23;;;6.95;;
3587;SDS011;1808;53.596;9.972;2023-03-01T03:06:42;16.80;;;8.07;;
3587;SDS011;1808;53.596;9.972;2023-03-01T03:09:09;15.65;;;6.88;;
3587;SDS011;1808;53.596;9.972;2023-03-01T03:11:36;18.42;;;8.75;;
3587;SDS011;1808;53.596;9.972;2023-03-01T03:14:04;20.88;;;8.60;;
3587;SDS011;1808;53.596;9.972;2023-03-01T03:16:32;15.38;;;7.32;;
3587;SDS011;1808;53.596;9.972;2023-03-01T03:18:58;14.38;;;7.32;;
3587;SDS011;1808;53.596;9.972;2023-03-01T03:21:30;14.70;;;7.95;;
3587;SDS011;1808;53.596;9.972;2023-03-01T03:23:56;17.23;;;7.70;;
3587;SDS011;1808;53.596;9.972;2023-03-01T03:26:23;15.60;;;7.63;;
3587;SDS011;1808;53.596;9.972;2023-03-01T03:28:49;14.57;;;7.10;;
3587;SDS011;1808;53.596;9.972;2023-03-01T03:31:15;18.58;;;8.82;;
3587;SDS011;1808;53.596;9.972;2023-03-01T03:33:43;14.30;;;7.60;;
3587;SDS011;1808;53.596;9.972;2023-03-01T03:36:09;14.18;;;7.32;;
3587;SDS011;1808;53.596;9.972;2023-03-01T03:38:42;14.88;;;7.35;;
3587;SDS011;1808;53.596;9.972;2023-03-01T03:41:09;13.00;;;6.63;;
3587;SDS011;1808;53.596;9.972;2023-03-01T03:43:36;12.38;;;6.47;;
3587;SDS011;1808;53.596;9.972;2023-03-01T03:46:03;17.23;;;7.32;;
3587;SDS011;1808;53.596;9.972;2023-03-01T03:48:31;12.52;;;7.10;;
3587;SDS011;1808;53.596;9.972;2023-03-01T03:50:58;14.32;;;7.07;;
3587;SDS011;1808;53.596;9.972;2023-03-01T03:53:26;14.45;;;7.75;;
3587;SDS011;1808;53.596;9.972;2023-03-01T03:55:53;16.35;;;8.30;;
3587;SDS011;1808;53.596;9.972;2023-03-01T03:58:21;13.63;;;8.00;;
3587;SDS011;1808;53.596;9.972;2023-03-01T04:00:49;15.43;;;7.43;;
3587;SDS011;1808;53.596;9.972;2023-03-01T04:03:16;12.10;;;6.50;;
3587;SDS011;1808;53.596;9.972;2023-03-01T04:05:43;10.90;;;6.85;;
3587;SDS011;1808;53.596;9.972;2023-03-01T04:08:11;12.57;;;6.82;;
3587;SDS011;1808;53.596;9.972;2023-03-01T04:10:38;15.13;;;7.53;;
3587;SDS011;1808;53.596;9.972;2023-03-01T04:13:06;14.40;;;7.07;;
3587;SDS011;1808;53.596;9.972;2023-03-01T04:15:34;11.07;;;6.22;;
3587;SDS011;1808;53.596;9.972;2023-03-01T04:18:01;12.13;;;6.65;;
3587;SDS011;1808;53.596;9.972;2023-03-01T04:20:28;11.00;;;6.32;;
3587;SDS011;1808;53.596;9.972;2023-03-01T04:22:57;10.95;;;5.88;;
3587;SDS011;1808;53.596;9.972;2023-03-01T04:25:26;12.45;;;6.93;;
3587;SDS011;1808;53.596;9.972;2023-03-01T04:27:52;13.63;;;6.72;;
3587;SDS011;1808;53.596;9.972;2023-03-01T04:30:18;13.30;;;6.75;;
3587;SDS011;1808;53.596;9.972;2023-03-01T04:32:45;11.95;;;5.90;;
3587;SDS011;1808;53.596;9.972;2023-03-01T04:35:11;12.73;;;6.53;;
3587;SDS011;1808;53.596;9.972;2023-03-01T04:37:37;12.05;;;6.78;;
3587;SDS011;1808;53.596;9.972;2023-03-01T04:40:04;9.43;;;5.78;;
3587;SDS011;1808;53.596;9.972;2023-03-01T04:42:42;12.05;;;6.53;;
3587;SDS011;1808;53.596;9.972;2023-03-01T04:45:09;13.05;;;6.53;;
3587;SDS011;1808;53.596;9.972;2023-03-01T04:47:38;11.98;;;6.55;;
3587;SDS011;1808;53.596;9.972;2023-03-01T04:50:05;10.32;;;5.32;;
3587;SDS011;1808;53.596;9.972;2023-03-01T04:52:32;12.25;;;5.60;;
3587;SDS011;1808;53.596;9.972;2023-03-01T04:54:58;12.05;;;5.82;;
3587;SDS011;1808;53.596;9.972;2023-03-01T04:57:25;12.07;;;6.22;;
3587;SDS011;1808;53.596;9.972;2023-03-01T04:59:52;12.60;;;6.15;;
3587;SDS011;1808;53.596;9.972;2023-03-01T05:02:19;13.35;;;5.60;;
3587;SDS011;1808;53.596;9.972;2023-03-01T05:04:45;13.65;;;5.80;;
3587;SDS011;1808;53.596;9.972;2023-03-01T05:07:11;13.10;;;5.82;;
3587;SDS011;1808;53.596;9.972;2023-03-01T05:09:44;12.32;;;7.40;;
3587;SDS011;1808;53.596;9.972;2023-03-01T05:12:10;13.45;;;6.80;;
3587;SDS011;1808;53.596;9.972;2023-03-01T05:14:37;10.15;;;6.13;;
3587;SDS011;1808;53.596;9.972;2023-03-01T05:17:04;14.25;;;7.13;;
3587;SDS011;1808;53.596;9.972;2023-03-01T05:19:31;11.32;;;6.60;;
3587;SDS011;1808;53.596;9.972;2023-03-01T05:21:57;14.07;;;6.93;;
3587;SDS011;1808;53.596;9.972;2023-03-01T05:24:29;15.85;;;6.70;;
3587;SDS011;1808;53.596;9.972;2023-03-01T05:26:57;15.90;;;7.15;;
3587;SDS011;1808;53.596;9.972;2023-03-01T05:29:23;13.55;;;7.35;;
3587;SDS011;1808;53.596;9.972;2023-03-01T05:31:51;14.90;;;7.78;;
3587;SDS011;1808;53.596;9.972;2023-03-01T05:34:22;13.60;;;6.82;;
3587;SDS011;1808;53.596;9.972;2023-03-01T05:36:50;15.13;;;7.30;;
3587;SDS011;1808;53.596;9.972;2023-03-01T05:39:17;11.65;;;6.32;;
3587;SDS011;1808;53.596;9.972;2023-03-01T05:41:44;11.38;;;6.00;;
3587;SDS011;1808;53.596;9.972;2023-03-01T05:44:11;14.68;;;6.70;;
3587;SDS011;1808;53.596;9.972;2023-03-01T05:46:37;16.33;;;6.47;;
3587;SDS011;1808;53.596;9.972;2023-03-01T05:49:04;11.85;;;6.38;;
3587;SDS011;1808;53.596;9.972;2023-03-01T05:51:31;13.90;;;6.45;;
3587;SDS011;1808;53.596;9.972;2023-03-01T05:53:58;12.15;;;5.72;;
3587;SDS011;1808;53.596;9.972;2023-03-01T05:56:24;11.60;;;6.05;;
3587;SDS011;1808;53.596;9.972;2023-03-01T05:58:51;10.75;;;5.82;;
3587;SDS011;1808;53.596;9.972;2023-03-01T06:01:17;15.32;;;6.43;;
3587;SDS011;1808;53.596;9.972;2023-03-01T06:03:44;11.02;;;5.78;;
3587;SDS011;1808;53.596;9.972;2023-03-01T06:06:10;11.68;;;5.75;;
3587;SDS011;1808;53.596;9.972;2023-03-01T06:08:38;12.18;;;5.40;;
3587;SDS011;1808;53.596;9.972;2023-03-01T06:11:04;8.68;;;5.50;;
3587;SDS011;1808;53.596;9.972;2023-03-01T06:13:32;12.02;;;5.40;;
3587;SDS011;1808;53.596;9.972;2023-03-01T06:15:58;11.00;;;5.15;;
3587;SDS011;1808;53.596;9.972;2023-03-01T06:18:24;13.18;;;4.95;;
3587;SDS011;1808;53.596;9.972;2023-03-01T06:20:54;10.55;;;4.85;;
3587;SDS011;1808;53.596;9.972;2023-03-01T06:23:21;8.75;;;4.93;;
3587;SDS011;1808;53.596;9.972;2023-03-01T06:25:48;9.82;;;5.00;;
3587;SDS011;1808;53.596;9.972;2023-03-01T06:28:15;11.73;;;4.90;;
3587;SDS011;1808;53.596;9.972;2023-03-01T06:30:41;8.18;;;4.50;;
3587;SDS011;1808;53.596;9.972;2023-03-01T06:33:07;14.55;;;5.35;;
3587;SDS011;1808;53.596;9.972;2023-03-01T06:35:34;10.50;;;4.78;;
3587;SDS011;1808;53.596;9.972;2023-03-01T06:38:01;11.50;;;6.25;;
3587;SDS011;1808;53.596;9.972;2023-03-01T06:40:28;11.40;;;5.95;;
3587;SDS011;1808;53.596;9.972;2023-03-01T06:42:57;11.07;;;5.05;;
3587;SDS011;1808;53.596;9.972;2023-03-01T06:45:23;13.77;;;5.53;;
3587;SDS011;1808;53.596;9.972;2023-03-01T06:47:50;9.25;;;5.53;;
3587;SDS011;1808;53.596;9.972;2023-03-01T06:50:16;11.40;;;4.93;;
3587;SDS011;1808;53.596;9.972;2023-03-01T06:52:43;9.52;;;4.80;;
3587;SDS011;1808;53.596;9.972;2023-03-01T06:55:10;10.30;;;4.80;;
3587;SDS011;1808;53.596;9.972;2023-03-01T06:57:37;9.68;;;4.80;;
3587;SDS011;1808;53.596;9.972;2023-03-01T07:00:06;8.35;;;4.68;;
3587;SDS011;1808;53.596;9.972;2023-03-01T07:02:33;9.57;;;4.72;;
3587;SDS011;1808;53.596;9.972;2023-03-01T07:04:59;8.35;;;4.93;;
3587;SDS011;1808;53.596;9.972;2023-03-01T07:07:25;11.23;;;4.50;;
3587;SDS011;1808;53.596;9.972;2023-03-01T07:09:52;8.60;;;5.00;;
3587;SDS011;1808;53.596;9.972;2023-03-01T07:12:19;11.45;;;4.80;;
3587;SDS011;1808;53.596;9.972;2023-03-01T07:14:45;9.02;;;4.93;;
3587;SDS011;1808;53.596;9.972;2023-03-01T07:17:13;11.82;;;5.43;;
3587;SDS011;1808;53.596;9.972;2023-03-01T07:19:39;10.45;;;5.20;;
3587;SDS011;1808;53.596;9.972;2023-03-01T07:22:05;11.55;;;5.10;;
3587;SDS011;1808;53.596;9.972;2023-03-01T07:24:32;11.40;;;5.28;;
3587;SDS011;1808;53.596;9.972;2023-03-01T07:26:59;14.43;;;5.60;;
3587;SDS011;1808;53.596;9.972;2023-03-01T07:29:25;11.07;;;5.32;;
3587;SDS011;1808;53.596;9.972;2023-03-01T07:31:53;7.65;;;5.00;;
3587;SDS011;1808;53.596;9.972;2023-03-01T07:34:21;9.95;;;5.30;;
3587;SDS011;1808;53.596;9.972;2023-03-01T07:36:47;12.68;;;6.97;;
3587;SDS011;1808;53.596;9.972;2023-03-01T07:39:13;12.63;;;6.15;;
3587;SDS011;1808;53.596;9.972;2023-03-01T07:41:40;12.18;;;6.93;;
3587;SDS011;1808;53.596;9.972;2023-03-01T07:44:06;15.18;;;7.63;;
3587;SDS011;1808;53.596;9.972;2023-03-01T07:46:32;11.85;;;6.55;;
3587;SDS011;1808;53.596;9.972;2023-03-01T07:48:59;11.50;;;7.10;;
3587;SDS011;1808;53.596;9.972;2023-03-01T07:51:26;13.52;;;7.70;;
3587;SDS011;1808;53.596;9.972;2023-03-01T07:53:53;15.48;;;7.53;;
3587;SDS011;1808;53.596;9.972;2023-03-01T07:56:19;10.70;;;7.43;;
3587;SDS011;1808;53.596;9.972;2023-03-01T07:58:47;18.65;;;7.68;;
3587;SDS011;1808;53.596;9.972;2023-03-01T08:01:14;19.33;;;10.35;;
3587;SDS011;1808;53.596;9.972;2023-03-01T08:03:42;18.75;;;9.40;;
3587;SDS011;1808;53.596;9.972;2023-03-01T08:06:09;15.45;;;6.88;;
3587;SDS011;1808;53.596;9.972;2023-03-01T08:08:38;14.95;;;7.80;;
3587;SDS011;1808;53.596;9.972;2023-03-01T08:11:05;13.07;;;9.23;;
3587;SDS011;1808;53.596;9.972;2023-03-01T08:13:33;17.92;;;10.45;;
3587;SDS011;1808;53.596;9.972;2023-03-01T08:16:02;16.33;;;10.35;;
3587;SDS011;1808;53.596;9.972;2023-03-01T08:18:29;17.92;;;10.35;;
3587;SDS011;1808;53.596;9.972;2023-03-01T08:20:55;15.57;;;9.25;;
3587;SDS011;1808;53.596;9.972;2023-03-01T08:23:22;18.52;;;10.52;;
3587;SDS011;1808;53.596;9.972;2023-03-01T08:25:49;20.58;;;12.32;;
3587;SDS011;1808;53.596;9.972;2023-03-01T08:28:16;15.85;;;9.63;;
3587;SDS011;1808;53.596;9.972;2023-03-01T08:30:42;20.98;;;10.43;;
3587;SDS011;1808;53.596;9.972;2023-03-01T08:33:08;24.17;;;12.98;;
3587;SDS011;1808;53.596;9.972;2023-03-01T08:35:34;20.05;;;10.60;;
3587;SDS011;1808;53.596;9.972;2023-03-01T08:38:01;20.08;;;11.23;;
3587;SDS011;1808;53.596;9.972;2023-03-01T08:40:27;16.02;;;8.80;;
3587;SDS011;1808;53.596;9.972;2023-03-01T08:42:55;17.25;;;9.73;;
3587;SDS011;1808;53.596;9.972;2023-03-01T08:45:21;18.35;;;10.00;;
3587;SDS011;1808;53.596;9.972;2023-03-01T08:47:50;22.58;;;13.63;;
3587;SDS011;1808;53.596;9.972;2023-03-01T08:50:18;17.38;;;9.98;;
3587;SDS011;1808;53.596;9.972;2023-03-01T08:52:44;23.77;;;12.43;;
3587;SDS011;1808;53.596;9.972;2023-03-01T08:55:10;20.38;;;12.98;;
3587;SDS011;1808;53.596;9.972;2023-03-01T08:57:37;20.92;;;13.43;;
3587;SDS011;1808;53.596;9.972;2023-03-01T09:00:05;21.48;;;12.77;;
3587;SDS011;1808;53.596;9.972;2023-03-01T09:02:33;23.35;;;13.80;;
3587;SDS011;1808;53.596;9.972;2023-03-01T09:05:00;18.98;;;11.57;;
3587;SDS011;1808;53.596;9.972;2023-03-01T09:07:26;21.15;;;12.13;;
3587;SDS011;1808;53.596;9.972;2023-03-01T09:09:54;20.95;;;12.25;;
3587;SDS011;1808;53.596;9.972;2023-03-01T09:12:20;23.00;;;14.18;;
3587;SDS011;1808;53.596;9.972;2023-03-01T09:14:47;22.20;;;12.73;;
3587;SDS011;1808;53.596;9.972;2023-03-01T09:17:14;22.73;;;13.43;;
3587;SDS011;1808;53.596;9.972;2023-03-01T09:19:41;22.35;;;13.45;;
3587;SDS011;1808;53.596;9.972;2023-03-01T09:22:07;19.73;;;11.32;;
3587;SDS011;1808;53.596;9.972;2023-03-01T09:24:33;27.77;;;13.77;;
3587;SDS011;1808;53.596;9.972;2023-03-01T09:27:00;26.58;;;13.38;;
3587;SDS011;1808;53.596;9.972;2023-03-01T09:29:26;27.73;;;14.95;;
3587;SDS011;1808;53.596;9.972;2023-03-01T09:31:53;24.90;;;12.70;;
3587;SDS011;1808;53.596;9.972;2023-03-01T09:34:21;20.38;;;12.10;;
3587;SDS011;1808;53.596;9.972;2023-03-01T09:36:49;25.20;;;12.95;;
3587;SDS011;1808;53.596;9.972;2023-03-01T09:39:15;18.70;;;12.63;;
3587;SDS011;1808;53.596;9.972;2023-03-01T09:41:44;20.25;;;12.98;;
3587;SDS011;1808;53.596;9.972;2023-03-01T09:44:16;22.23;;;12.05;;
3587;SDS011;1808;53.596;9.972;2023-03-01T09:46:47;24.30;;;14.20;;
3587;SDS011;1808;53.596;9.972;2023-03-01T09:49:14;22.15;;;12.18;;
3587;SDS011;1808;53.596;9.972;2023-03-01T09:51:46;20.13;;;12.20;;
3587;SDS011;1808;53.596;9.972;2023-03-01T09:54:20;22.25;;;13.23;;
3587;SDS011;1808;53.596;9.972;2023-03-01T09:56:50;23.50;;;13.95;;
3587;SDS011;1808;53.596;9.972;2023-03-01T09:59:24;27.27;;;12.05;;
3587;SDS011;1808;53.596;9.972;2023-03-01T10:01:53;16.45;;;9.93;;
3587;SDS011;1808;53.596;9.972;2023-03-01T10:04:24;21.63;;;11.10;;
3587;SDS011;1808;53.596;9.972;2023-03-01T10:06:58;24.73;;;12.87;;
3587;SDS011;1808;53.596;9.972;2023-03-01T10:09:32;17.83;;;10.85;;
3587;SDS011;1808;53.596;9.972;2023-03-01T10:12:00;21.85;;;12.93;;
3587;SDS011;1808;53.596;9.972;2023-03-01T10:14:30;21.33;;;12.43;;
3587;SDS011;1808;53.596;9.972;2023-03-01T10:16:59;22.00;;;11.40;;
3587;SDS011;1808;53.596;9.972;2023-03-01T10:19:29;17.38;;;8.82;;
3587;SDS011;1808;53.596;9.972;2023-03-01T10:22:00;16.52;;;10.27;;
3587;SDS011;1808;53.596;9.972;2023-03-01T10:24:30;22.70;;;11.57;;
3587;SDS011;1808;53.596;9.972;2023-03-01T10:26:58;20.75;;;12.90;;
3587;SDS011;1808;53.596;9.972;2023-03-01T10:29:29;21.70;;;10.60;;
3587;SDS011;1808;53.596;9.972;2023-03-01T10:31:57;20.05;;;10.30;;
3587;SDS011;1808;53.596;9.972;2023-03-01T10:34:27;20.95;;;10.48;;
3587;SDS011;1808;53.596;9.972;2023-03-01T10:36:55;24.33;;;11.25;;
3587;SDS011;1808;53.596;9.972;2023-03-01T10:39:24;16.08;;;9.98;;
3587;SDS011;1808;53.596;9.972;2023-03-01T10:41:53;18.95;;;9.63;;
3587;SDS011;1808;53.596;9.972;2023-03-01T10:44:38;18.67;;;10.70;;
3587;SDS011;1808;53.596;9.972;2023-03-01T10:47:12;9.07;;;5.97;;
3587;SDS011;1808;53.596;9.972;2023-03-01T10:49:53;13.57;;;7.65;;
3587;SDS011;1808;53.596;9.972;2023-03-01T10:52:25;12.52;;;7.55;;
3587;SDS011;1808;53.596;9.972;2023-03-01T10:54:58;16.95;;;10.00;;
3587;SDS011;1808;53.596;9.972;2023-03-01T10:57:33;13.68;;;7.30;;
3587;SDS011;1808;53.596;9.972;2023-03-01T11:00:15;19.10;;;9.50;;
3587;SDS011;1808;53.596;9.972;2023-03-01T11:02:47;20.58;;;9.40;;
3587;SDS011;1808;53.596;9.972;2023-03-01T11:05:20;17.05;;;9.07;;
3587;SDS011;1808;53.596;9.972;2023-03-01T11:07:50;16.23;;;7.55;;
3587;SDS011;1808;53.596;9.972;2023-03-01T11:10:20;16.25;;;8.40;;
3587;SDS011;1808;53.596;9.972;2023-03-01T11:12:47;14.18;;;8.07;;
3587;SDS011;1808;53.596;9.972;2023-03-01T11:15:21;17.27;;;8.48;;
3587;SDS011;1808;53.596;9.972;2023-03-01T11:17:50;13.48;;;7.90;;
3587;SDS011;1808;53.596;9.972;2023-03-01T11:20:19;18.75;;;8.32;;
3587;SDS011;1808;53.596;9.972;2023-03-01T11:22:51;16.90;;;8.13;;
3587;SDS011;1808;53.596;9.972;2023-03-01T11:25:23;16.52;;;9.00;;
3587;SDS011;1808;53.596;9.972;2023-03-01T11:27:51;13.05;;;6.38;;
3587;SDS011;1808;53.596;9.972;2023-03-01T11:30:20;13.95;;;7.90;;
3587;SDS011;1808;53.596;9.972;2023-03-01T11:32:50;10.85;;;6.25;;
3587;SDS011;1808;53.596;9.972;2023-03-01T11:35:22;11.95;;;6.95;;
3587;SDS011;1808;53.596;9.972;2023-03-01T11:37:54;14.38;;;7.95;;
3587;SDS011;1808;53.596;9.972;2023-03-01T11:40:29;14.65;;;8.30;;
3587;SDS011;1808;53.596;9.972;2023-03-01T11:43:03;14.05;;;7.72;;
3587;SDS011;1808;53.596;9.972;2023-03-01T11:45:34;13.23;;;7.85;;
3587;SDS011;1808;53.596;9.972;2023-03-01T11:48:17;12.65;;;7.30;;
3587;SDS011;1808;53.596;9.972;2023-03-01T11:50:53;7.78;;;4.78;;
3587;SDS011;1808;53.596;9.972;2023-03-01T11:53:30;13.80;;;5.97;;
3587;SDS011;1808;53.596;9.972;2023-03-01T11:56:09;8.13;;;4.25;;
3587;SDS011;1808;53.596;9.972;2023-03-01T11:58:43;7.70;;;5.63;;
3587;SDS011;1808;53.596;9.972;2023-03-01T12:01:15;7.72;;;4.22;;
3587;SDS011;1808;53.596;9.972;2023-03-01T12:04:04;6.03;;;2.70;;
3587;SDS011;1808;53.596;9.972;2023-03-01T12:09:14;6.65;;;2.85;;
3587;SDS011;1808;53.596;9.972;2023-03-01T12:11:52;6.57;;;4.20;;
3587;SDS011;1808;53.596;9.972;2023-03-01T12:17:23;8.10;;;4.63;;
3587;SDS011;1808;53.596;9.972;2023-03-01T12:20:14;12.30;;;4.70;;
3587;SDS011;1808;53.596;9.972;2023-03-01T12:22:52;8.05;;;4.40;;
3587;SDS011;1808;53.596;9.972;2023-03-01T12:25:27;8.23;;;4.35;;
3587;SDS011;1808;53.596;9.972;2023-03-01T12:28:02;8.15;;;3.92;;
3587;SDS011;1808;53.596;9.972;2023-03-01T12:30:40;8.13;;;3.90;;
3587;SDS011;1808;53.596;9.972;2023-03-01T12:33:17;7.00;;;3.85;;
3587;SDS011;1808;53.596;9.972;2023-03-01T12:35:54;8.18;;;4.72;;
3587;SDS011;1808;53.596;9.972;2023-03-01T12:38:32;7.80;;;4.65;;
3587;SDS011;1808;53.596;9.972;2023-03-01T12:41:20;7.97;;;4.43;;
3587;SDS011;1808;53.596;9.972;2023-03-01T12:44:00;7.60;;;4.38;;
3587;SDS011;1808;53.596;9.972;2023-03-01T12:46:33;8.15;;;5.45;;
3587;SDS011;1808;53.596;9.972;2023-03-01T12:49:07;7.97;;;4.68;;
3587;SDS011;1808;53.596;9.972;2023-03-01T12:51:35;6.47;;;3.35;;
3587;SDS011;1808;53.596;9.972;2023-03-01T12:54:05;9.30;;;5.38;;
3587;SDS011;1808;53.596;9.972;2023-03-01T12:56:34;10.02;;;6.40;;
3587;SDS011;1808;53.596;9.972;2023-03-01T12:59:05;12.63;;;5.93;;
3587;SDS011;1808;53.596;9.972;2023-03-01T13:01:40;9.63;;;5.60;;
3587;SDS011;1808;53.596;9.972;2023-03-01T13:07:13;9.05;;;6.20;;
3587;SDS011;1808;53.596;9.972;2023-03-01T13:09:47;10.30;;;5.97;;
3587;SDS011;1808;53.596;9.972;2023-03-01T13:17:55;11.88;;;6.18;;
3587;SDS011;1808;53.596;9.972;2023-03-01T13:20:23;9.52;;;5.60;;
3587;SDS011;1808;53.596;9.972;2023-03-01T13:22:59;9.27;;;5.15;;
3587;SDS011;1808;53.596;9.972;2023-03-01T13:25:30;10.38;;;5.63;;
3587;SDS011;1808;53.596;9.972;2023-03-01T13:31:00;9.57;;;5.93;;
3587;SDS011;1808;53.596;9.972;2023-03-01T13:33:38;10.07;;;5.60;;
3587;SDS011;1808;53.596;9.972;2023-03-01T13:36:07;11.65;;;6.35;;
3587;SDS011;1808;53.596;9.972;2023-03-01T13:38:36;11.27;;;6.13;;
3587;SDS011;1808;53.596;9.972;2023-03-01T13:41:04;12.25;;;5.35;;
3587;SDS011;1808;53.596;9.972;2023-03-01T13:43:31;11.77;;;6.78;;
3587;SDS011;1808;53.596;9.972;2023-03-01T13:46:00;9.45;;;4.80;;
3587;SDS011;1808;53.596;9.972;2023-03-01T13:48:29;10.73;;;5.05;;
3587;SDS011;1808;53.596;9.972;2023-03-01T13:50:57;8.48;;;5.38;;
3587;SDS011;1808;53.596;9.972;2023-03-01T13:53:26;10.25;;;4.90;;
3587;SDS011;1808;53.596;9.972;2023-03-01T13:55:57;10.88;;;5.63;;
3587;SDS011;1808;53.596;9.972;2023-03-01T13:58:26;11.80;;;6.28;;
3587;SDS011;1808;53.596;9.972;2023-03-01T14:00:55;10.70;;;6.47;;
3587;SDS011;1808;53.596;9.972;2023-03-01T14:03:24;9.00;;;6.38;;
3587;SDS011;1808;53.596;9.972;2023-03-01T14:06:01;10.25;;;6.10;;
3587;SDS011;1808;53.596;9.972;2023-03-01T14:08:32;11.50;;;5.80;;
3587;SDS011;1808;53.596;9.972;2023-03-01T14:11:10;10.27;;;7.22;;
3587;SDS011;1808;53.596;9.972;2023-03-01T14:13:48;9.40;;;5.53;;
3587;SDS011;1808;53.596;9.972;2023-03-01T14:16:24;9.38;;;5.30;;
3587;SDS011;1808;53.596;9.972;2023-03-01T14:19:03;8.70;;;5.07;;
3587;SDS011;1808;53.596;9.972;2023-03-01T14:21:41;8.38;;;5.07;;
3587;SDS011;1808;53.596;9.972;2023-03-01T14:24:14;9.88;;;5.40;;
3587;SDS011;1808;53.596;9.972;2023-03-01T14:26:43;8.63;;;5.28;;
3587;SDS011;1808;53.596;9.972;2023-03-01T14:29:22;9.25;;;5.20;;
3587;SDS011;1808;53.596;9.972;2023-03-01T14:31:49;9.45;;;5.15;;
3587;SDS011;1808;53.596;9.972;2023-03-01T14:34:20;9.73;;;5.30;;
3587;SDS011;1808;53.596;9.972;2023-03-01T14:36:47;8.82;;;5.65;;
3587;SDS011;1808;53.596;9.972;2023-03-01T14:39:17;8.25;;;4.68;;
3587;SDS011;1808;53.596;9.972;2023-03-01T14:41:45;9.90;;;6.38;;
3587;SDS011;1808;53.596;9.972;2023-03-01T14:44:12;8.68;;;4.72;;
3587;SDS011;1808;53.596;9.972;2023-03-01T14:46:43;10.18;;;4.85;;
3587;SDS011;1808;53.596;9.972;2023-03-01T14:49:11;10.90;;;5.28;;
3587;SDS011;1808;53.596;9.972;2023-03-01T14:51:42;11.02;;;6.35;;
3587;SDS011;1808;53.596;9.972;2023-03-01T14:54:18;8.57;;;4.70;;
3587;SDS011;1808;53.596;9.972;2023-03-01T14:56:46;11.35;;;6.82;;
3587;SDS011;1808;53.596;9.972;2023-03-01T14:59:13;10.65;;;5.95;;
3587;SDS011;1808;53.596;9.972;2023-03-01T15:01:40;10.52;;;6.45;;
3587;SDS011;1808;53.596;9.972;2023-03-01T15:04:07;12.13;;;6.28;;
3587;SDS011;1808;53.596;9.972;2023-03-01T15:06:37;9.43;;;5.70;;
3587;SDS011;1808;53.596;9.972;2023-03-01T15:09:05;12.63;;;5.82;;
3587;SDS011;1808;53.596;9.972;2023-03-01T15:11:33;11.70;;;7.53;;
3587;SDS011;1808;53.596;9.972;2023-03-01T15:14:01;10.88;;;5.93;;
3587;SDS011;1808;53.596;9.972;2023-03-01T15:16:53;11.60;;;5.80;;
3587;SDS011;1808;53.596;9.972;2023-03-01T15:19:19;12.15;;;7.10;;
3587;SDS011;1808;53.596;9.972;2023-03-01T15:21:47;11.02;;;5.82;;
3587;SDS011;1808;53.596;9.972;2023-03-01T15:24:17;12.25;;;7.13;;
3587;SDS011;1808;53.596;9.972;2023-03-01T15:26:49;14.90;;;6.68;;
3587;SDS011;1808;53.596;9.972;2023-03-01T15:29:20;11.27;;;6.50;;
3587;SDS011;1808;53.596;9.972;2023-03-01T15:31:54;12.57;;;7.68;;
3587;SDS011;1808;53.596;9.972;2023-03-01T15:34:22;10.50;;;5.82;;